sensor_id;sensor_type;location;lat;lon;timestamp;pressure;altitude;pressure_sealevel;temperature
11321;BMP180;5715;48.234;14.320;2023-05-16T00:01:45;98134.00;;;18.50
11321;BMP180;5715;48.234;14.320;2023-05-16T00:04:35;98142.00;;;18.60
11321;BMP180;5715;48.234;14.320;2023-05-16T00:07:23;98143.00;;;18.70
11321;BMP180;5715;48.234;14.320;2023-05-16T00:10:11;98138.00;;;18.60
11321;BMP180;5715;48.234;14.320;2023-05-16T00:12:58;98137.00;;;18.60
11321;BMP180;5715;48.234;14.320;2023-05-16T00:15:48;98147.00;;;18.60
11321;BMP180;5715;48.234;14.320;2023-05-16T00:18:35;98140.00;;;18.70
11321;BMP180;5715;48.234;14.320;2023-05-16T00:21:24;98139.00;;;18.70
11321;BMP180;5715;48.234;14.320;2023-05-16T00:24:11;98129.00;;;18.70
11321;BMP180;5715;48.234;14.320;2023-05-16T00:26:59;98134.00;;;18.70
11321;BMP180;5715;48.234;14.320;2023-05-16T00:29:46;98134.00;;;18.70
11321;BMP180;5715;48.234;14.320;2023-05-16T00:32:35;98120.00;;;18.60
11321;BMP180;5715;48.234;14.320;2023-05-16T00:35:23;98115.00;;;18.60
11321;BMP180;5715;48.234;14.320;2023-05-16T00:38:10;98122.00;;;18.50
11321;BMP180;5715;48.234;14.320;2023-05-16T00:40:58;98119.00;;;18.50
11321;BMP180;5715;48.234;14.320;2023-05-16T00:43:45;98114.00;;;18.60
11321;BMP180;5715;48.234;14.320;2023-05-16T00:46:33;98118.00;;;18.50
11321;BMP180;5715;48.234;14.320;2023-05-16T00:49:21;98113.00;;;18.50
11321;BMP180;5715;48.234;14.320;2023-05-16T00:52:08;98112.00;;;18.40
11321;BMP180;5715;48.234;14.320;2023-05-16T00:54:57;98110.00;;;18.40
11321;BMP180;5715;48.234;14.320;2023-05-16T00:57:44;98112.00;;;18.30
11321;BMP180;5715;48.234;14.320;2023-05-16T01:00:33;98117.00;;;18.30
11321;BMP180;5715;48.234;14.320;2023-05-16T01:03:21;98112.00;;;18.20
11321;BMP180;5715;48.234;14.320;2023-05-16T01:06:09;98109.00;;;18.20
11321;BMP180;5715;48.234;14.320;2023-05-16T01:08:57;98108.00;;;18.20
11321;BMP180;5715;48.234;14.320;2023-05-16T01:15:11;98121.00;;;18.10
11321;BMP180;5715;48.234;14.320;2023-05-16T01:18:08;98119.00;;;18.10
11321;BMP180;5715;48.234;14.320;2023-05-16T01:21:12;98124.00;;;18.10
11321;BMP180;5715;48.234;14.320;2023-05-16T01:27:46;98126.00;;;18.00
11321;BMP180;5715;48.234;14.320;2023-05-16T01:30:39;98123.00;;;18.00
11321;BMP180;5715;48.234;14.320;2023-05-16T01:33:27;98115.00;;;18.00
11321;BMP180;5715;48.234;14.320;2023-05-16T01:36:44;98111.00;;;17.90
11321;BMP180;5715;48.234;14.320;2023-05-16T01:39:49;98114.00;;;17.80
11321;BMP180;5715;48.234;14.320;2023-05-16T01:42:46;98115.00;;;17.80
11321;BMP180;5715;48.234;14.320;2023-05-16T01:45:46;98112.00;;;17.80
11321;BMP180;5715;48.234;14.320;2023-05-16T01:48:45;98112.00;;;17.80
11321;BMP180;5715;48.234;14.320;2023-05-16T01:51:40;98121.00;;;17.80
11321;BMP180;5715;48.234;14.320;2023-05-16T01:54:31;98112.00;;;17.80
11321;BMP180;5715;48.234;14.320;2023-05-16T01:57:25;98107.00;;;17.80
11321;BMP180;5715;48.234;14.320;2023-05-16T02:00:13;98119.00;;;17.70
11321;BMP180;5715;48.234;14.320;2023-05-16T02:03:01;98128.00;;;17.70
11321;BMP180;5715;48.234;14.320;2023-05-16T02:05:49;98125.00;;;17.70
11321;BMP180;5715;48.234;14.320;2023-05-16T02:08:37;98124.00;;;17.60
11321;BMP180;5715;48.234;14.320;2023-05-16T02:11:25;98121.00;;;17.70
11321;BMP180;5715;48.234;14.320;2023-05-16T02:14:13;98121.00;;;17.80
11321;BMP180;5715;48.234;14.320;2023-05-16T02:17:00;98124.00;;;17.80
11321;BMP180;5715;48.234;14.320;2023-05-16T02:19:48;98124.00;;;17.90
11321;BMP180;5715;48.234;14.320;2023-05-16T02:22:36;98124.00;;;18.00
11321;BMP180;5715;48.234;14.320;2023-05-16T02:25:25;98132.00;;;17.90
11321;BMP180;5715;48.234;14.320;2023-05-16T02:28:13;98125.00;;;17.70
11321;BMP180;5715;48.234;14.320;2023-05-16T02:31:01;98121.00;;;17.70
11321;BMP180;5715;48.234;14.320;2023-05-16T02:33:48;98113.00;;;17.80
11321;BMP180;5715;48.234;14.320;2023-05-16T02:36:36;98102.00;;;17.80
11321;BMP180;5715;48.234;14.320;2023-05-16T02:39:23;98117.00;;;17.90
11321;BMP180;5715;48.234;14.320;2023-05-16T02:42:11;98110.00;;;17.90
11321;BMP180;5715;48.234;14.320;2023-05-16T02:44:58;98113.00;;;18.00
11321;BMP180;5715;48.234;14.320;2023-05-16T02:47:46;98118.00;;;18.00
11321;BMP180;5715;48.234;14.320;2023-05-16T02:50:34;98107.00;;;17.80
11321;BMP180;5715;48.234;14.320;2023-05-16T02:53:21;98112.00;;;17.90
11321;BMP180;5715;48.234;14.320;2023-05-16T02:56:09;98117.00;;;17.80
11321;BMP180;5715;48.234;14.320;2023-05-16T02:58:57;98117.00;;;17.90
11321;BMP180;5715;48.234;14.320;2023-05-16T03:01:44;98115.00;;;17.90
11321;BMP180;5715;48.234;14.320;2023-05-16T03:04:32;98099.00;;;17.80
11321;BMP180;5715;48.234;14.320;2023-05-16T03:07:20;98105.00;;;17.80
11321;BMP180;5715;48.234;14.320;2023-05-16T03:10:08;98108.00;;;17.90
11321;BMP180;5715;48.234;14.320;2023-05-16T03:12:55;98103.00;;;18.10
11321;BMP180;5715;48.234;14.320;2023-05-16T03:15:44;98103.00;;;18.10
11321;BMP180;5715;48.234;14.320;2023-05-16T03:18:32;98095.00;;;18.10
11321;BMP180;5715;48.234;14.320;2023-05-16T03:21:20;98094.00;;;18.10
11321;BMP180;5715;48.234;14.320;2023-05-16T03:24:10;98093.00;;;18.10
11321;BMP180;5715;48.234;14.320;2023-05-16T03:26:57;98092.00;;;18.10
11321;BMP180;5715;48.234;14.320;2023-05-16T03:29:46;98082.00;;;18.20
11321;BMP180;5715;48.234;14.320;2023-05-16T03:32:34;98088.00;;;18.30
11321;BMP180;5715;48.234;14.320;2023-05-16T03:35:22;98095.00;;;18.30
11321;BMP180;5715;48.234;14.320;2023-05-16T03:38:11;98085.00;;;18.40
11321;BMP180;5715;48.234;14.320;2023-05-16T03:40:58;98089.00;;;18.40
11321;BMP180;5715;48.234;14.320;2023-05-16T03:43:47;98088.00;;;18.30
11321;BMP180;5715;48.234;14.320;2023-05-16T03:46:35;98088.00;;;18.40
11321;BMP180;5715;48.234;14.320;2023-05-16T03:49:26;98079.00;;;18.50
11321;BMP180;5715;48.234;14.320;2023-05-16T03:52:16;98077.00;;;18.40
11321;BMP180;5715;48.234;14.320;2023-05-16T03:55:04;98077.00;;;18.50
11321;BMP180;5715;48.234;14.320;2023-05-16T03:57:52;98088.00;;;18.50
11321;BMP180;5715;48.234;14.320;2023-05-16T04:00:40;98084.00;;;18.50
11321;BMP180;5715;48.234;14.320;2023-05-16T04:03:27;98078.00;;;18.50
11321;BMP180;5715;48.234;14.320;2023-05-16T04:06:16;98072.00;;;18.60
11321;BMP180;5715;48.234;14.320;2023-05-16T04:09:04;98069.00;;;18.60
11321;BMP180;5715;48.234;14.320;2023-05-16T04:11:53;98069.00;;;18.60
11321;BMP180;5715;48.234;14.320;2023-05-16T04:14:43;98076.00;;;18.70
11321;BMP180;5715;48.234;14.320;2023-05-16T04:17:30;98087.00;;;18.70
11321;BMP180;5715;48.234;14.320;2023-05-16T04:20:18;98089.00;;;18.60
11321;BMP180;5715;48.234;14.320;2023-05-16T04:23:05;98085.00;;;18.90
11321;BMP180;5715;48.234;14.320;2023-05-16T04:25:53;98078.00;;;19.00
11321;BMP180;5715;48.234;14.320;2023-05-16T04:28:42;98077.00;;;19.10
11321;BMP180;5715;48.234;14.320;2023-05-16T04:31:30;98086.00;;;19.10
11321;BMP180;5715;48.234;14.320;2023-05-16T04:34:18;98080.00;;;19.10
11321;BMP180;5715;48.234;14.320;2023-05-16T04:37:06;98073.00;;;19.00
11321;BMP180;5715;48.234;14.320;2023-05-16T04:39:55;98078.00;;;19.10
11321;BMP180;5715;48.234;14.320;2023-05-16T04:42:42;98082.00;;;19.00
11321;BMP180;5715;48.234;14.320;2023-05-16T04:45:30;98088.00;;;19.20
11321;BMP180;5715;48.234;14.320;2023-05-16T04:48:17;98085.00;;;19.30
11321;BMP180;5715;48.234;14.320;2023-05-16T04:51:05;98083.00;;;19.40
11321;BMP180;5715;48.234;14.320;2023-05-16T04:53:53;98084.00;;;19.50
11321;BMP180;5715;48.234;14.320;2023-05-16T04:56:41;98077.00;;;19.40
11321;BMP180;5715;48.234;14.320;2023-05-16T04:59:28;98068.00;;;19.60
11321;BMP180;5715;48.234;14.320;2023-05-16T05:02:16;98075.00;;;19.70
11321;BMP180;5715;48.234;14.320;2023-05-16T05:05:05;98081.00;;;19.70
11321;BMP180;5715;48.234;14.320;2023-05-16T05:07:53;98082.00;;;19.90
11321;BMP180;5715;48.234;14.320;2023-05-16T05:10:41;98082.00;;;19.70
11321;BMP180;5715;48.234;14.320;2023-05-16T05:13:28;98082.00;;;20.10
11321;BMP180;5715;48.234;14.320;2023-05-16T05:16:16;98073.00;;;20.10
11321;BMP180;5715;48.234;14.320;2023-05-16T05:19:03;98058.00;;;20.40
11321;BMP180;5715;48.234;14.320;2023-05-16T05:21:51;98056.00;;;20.30
11321;BMP180;5715;48.234;14.320;2023-05-16T05:24:39;98054.00;;;20.20
11321;BMP180;5715;48.234;14.320;2023-05-16T05:27:26;98051.00;;;19.90
11321;BMP180;5715;48.234;14.320;2023-05-16T05:30:14;98059.00;;;20.00
11321;BMP180;5715;48.234;14.320;2023-05-16T05:33:02;98063.00;;;20.20
11321;BMP180;5715;48.234;14.320;2023-05-16T05:35:50;98077.00;;;20.00
11321;BMP180;5715;48.234;14.320;2023-05-16T05:38:40;98071.00;;;20.10
11321;BMP180;5715;48.234;14.320;2023-05-16T05:41:27;98074.00;;;20.20
11321;BMP180;5715;48.234;14.320;2023-05-16T05:44:15;98067.00;;;20.10
11321;BMP180;5715;48.234;14.320;2023-05-16T05:47:04;98070.00;;;19.90
11321;BMP180;5715;48.234;14.320;2023-05-16T05:49:52;98064.00;;;20.20
11321;BMP180;5715;48.234;14.320;2023-05-16T05:52:40;98075.00;;;20.10
11321;BMP180;5715;48.234;14.320;2023-05-16T05:55:27;98074.00;;;20.30
11321;BMP180;5715;48.234;14.320;2023-05-16T05:58:15;98077.00;;;20.30
11321;BMP180;5715;48.234;14.320;2023-05-16T06:01:04;98080.00;;;20.10
11321;BMP180;5715;48.234;14.320;2023-05-16T06:03:52;98085.00;;;19.90
11321;BMP180;5715;48.234;14.320;2023-05-16T06:06:39;98092.00;;;20.00
11321;BMP180;5715;48.234;14.320;2023-05-16T06:09:27;98101.00;;;20.30
11321;BMP180;5715;48.234;14.320;2023-05-16T06:12:14;98112.00;;;20.50
11321;BMP180;5715;48.234;14.320;2023-05-16T06:15:03;98114.00;;;20.20
11321;BMP180;5715;48.234;14.320;2023-05-16T06:17:51;98114.00;;;20.50
11321;BMP180;5715;48.234;14.320;2023-05-16T06:20:39;98104.00;;;20.10
11321;BMP180;5715;48.234;14.320;2023-05-16T06:23:27;98108.00;;;20.40
11321;BMP180;5715;48.234;14.320;2023-05-16T06:26:14;98123.00;;;20.60
11321;BMP180;5715;48.234;14.320;2023-05-16T06:29:02;98115.00;;;20.60
11321;BMP180;5715;48.234;14.320;2023-05-16T06:31:49;98122.00;;;20.90
11321;BMP180;5715;48.234;14.320;2023-05-16T06:34:37;98117.00;;;20.80
11321;BMP180;5715;48.234;14.320;2023-05-16T06:37:25;98106.00;;;21.00
11321;BMP180;5715;48.234;14.320;2023-05-16T06:40:13;98096.00;;;21.00
11321;BMP180;5715;48.234;14.320;2023-05-16T06:43:01;98105.00;;;20.90
11321;BMP180;5715;48.234;14.320;2023-05-16T06:45:48;98111.00;;;21.00
11321;BMP180;5715;48.234;14.320;2023-05-16T06:48:36;98108.00;;;21.10
11321;BMP180;5715;48.234;14.320;2023-05-16T06:51:23;98112.00;;;21.20
11321;BMP180;5715;48.234;14.320;2023-05-16T06:54:12;98114.00;;;21.20
11321;BMP180;5715;48.234;14.320;2023-05-16T06:56:59;98110.00;;;21.10
11321;BMP180;5715;48.234;14.320;2023-05-16T06:59:47;98124.00;;;21.20
11321;BMP180;5715;48.234;14.320;2023-05-16T07:02:35;98113.00;;;21.50
11321;BMP180;5715;48.234;14.320;2023-05-16T07:05:22;98121.00;;;21.50
11321;BMP180;5715;48.234;14.320;2023-05-16T07:08:10;98107.00;;;21.30
11321;BMP180;5715;48.234;14.320;2023-05-16T07:10:58;98096.00;;;21.00
11321;BMP180;5715;48.234;14.320;2023-05-16T07:13:46;98104.00;;;21.00
11321;BMP180;5715;48.234;14.320;2023-05-16T07:16:34;98096.00;;;21.40
11321;BMP180;5715;48.234;14.320;2023-05-16T07:19:21;98083.00;;;21.80
11321;BMP180;5715;48.234;14.320;2023-05-16T07:22:09;98090.00;;;21.00
11321;BMP180;5715;48.234;14.320;2023-05-16T07:24:58;98096.00;;;20.80
11321;BMP180;5715;48.234;14.320;2023-05-16T07:27:47;98096.00;;;21.60
11321;BMP180;5715;48.234;14.320;2023-05-16T07:30:35;98084.00;;;22.00
11321;BMP180;5715;48.234;14.320;2023-05-16T07:33:23;98092.00;;;21.70
11321;BMP180;5715;48.234;14.320;2023-05-16T07:36:12;98093.00;;;21.70
11321;BMP180;5715;48.234;14.320;2023-05-16T07:39:03;98090.00;;;22.20
11321;BMP180;5715;48.234;14.320;2023-05-16T07:41:51;98102.00;;;22.10
11321;BMP180;5715;48.234;14.320;2023-05-16T07:44:39;98092.00;;;22.10
11321;BMP180;5715;48.234;14.320;2023-05-16T07:47:27;98105.00;;;22.60
11321;BMP180;5715;48.234;14.320;2023-05-16T07:50:15;98104.00;;;22.70
11321;BMP180;5715;48.234;14.320;2023-05-16T07:53:03;98109.00;;;22.70
11321;BMP180;5715;48.234;14.320;2023-05-16T07:55:50;98107.00;;;22.30
11321;BMP180;5715;48.234;14.320;2023-05-16T07:58:38;98123.00;;;22.30
11321;BMP180;5715;48.234;14.320;2023-05-16T08:01:26;98114.00;;;22.50
11321;BMP180;5715;48.234;14.320;2023-05-16T08:04:13;98116.00;;;22.70
11321;BMP180;5715;48.234;14.320;2023-05-16T08:07:01;98119.00;;;22.90
11321;BMP180;5715;48.234;14.320;2023-05-16T08:09:49;98120.00;;;22.70
11321;BMP180;5715;48.234;14.320;2023-05-16T08:12:37;98127.00;;;23.00
11321;BMP180;5715;48.234;14.320;2023-05-16T08:15:27;98129.00;;;22.80
11321;BMP180;5715;48.234;14.320;2023-05-16T08:18:15;98129.00;;;23.00
11321;BMP180;5715;48.234;14.320;2023-05-16T08:21:04;98128.00;;;23.50
11321;BMP180;5715;48.234;14.320;2023-05-16T08:23:53;98119.00;;;23.00
11321;BMP180;5715;48.234;14.320;2023-05-16T08:26:40;98112.00;;;23.20
11321;BMP180;5715;48.234;14.320;2023-05-16T08:29:28;98116.00;;;23.20
11321;BMP180;5715;48.234;14.320;2023-05-16T08:32:16;98116.00;;;23.20
11321;BMP180;5715;48.234;14.320;2023-05-16T08:35:04;98108.00;;;23.40
11321;BMP180;5715;48.234;14.320;2023-05-16T08:37:52;98108.00;;;23.40
11321;BMP180;5715;48.234;14.320;2023-05-16T08:40:41;98119.00;;;23.50
11321;BMP180;5715;48.234;14.320;2023-05-16T08:43:29;98122.00;;;23.40
11321;BMP180;5715;48.234;14.320;2023-05-16T08:46:22;98116.00;;;23.40
11321;BMP180;5715;48.234;14.320;2023-05-16T08:49:10;98116.00;;;23.40
11321;BMP180;5715;48.234;14.320;2023-05-16T08:52:01;98113.00;;;23.30
11321;BMP180;5715;48.234;14.320;2023-05-16T08:54:50;98109.00;;;23.30
11321;BMP180;5715;48.234;14.320;2023-05-16T08:57:57;98100.00;;;23.10
11321;BMP180;5715;48.234;14.320;2023-05-16T09:00:46;98094.00;;;23.10
11321;BMP180;5715;48.234;14.320;2023-05-16T09:03:39;98085.00;;;22.70
11321;BMP180;5715;48.234;14.320;2023-05-16T09:06:27;98083.00;;;22.20
11321;BMP180;5715;48.234;14.320;2023-05-16T09:09:15;98070.00;;;22.40
11321;BMP180;5715;48.234;14.320;2023-05-16T09:12:02;98066.00;;;22.00
11321;BMP180;5715;48.234;14.320;2023-05-16T09:14:50;98062.00;;;21.70
11321;BMP180;5715;48.234;14.320;2023-05-16T09:17:44;98062.00;;;21.80
11321;BMP180;5715;48.234;14.320;2023-05-16T09:20:33;98062.00;;;21.80
11321;BMP180;5715;48.234;14.320;2023-05-16T09:23:23;98049.00;;;22.00
11321;BMP180;5715;48.234;14.320;2023-05-16T09:26:11;98048.00;;;22.60
11321;BMP180;5715;48.234;14.320;2023-05-16T09:28:59;98046.00;;;22.70
11321;BMP180;5715;48.234;14.320;2023-05-16T09:31:49;98052.00;;;23.20
11321;BMP180;5715;48.234;14.320;2023-05-16T09:34:47;98052.00;;;23.80
11321;BMP180;5715;48.234;14.320;2023-05-16T09:37:35;98048.00;;;23.70
11321;BMP180;5715;48.234;14.320;2023-05-16T09:40:23;98046.00;;;24.00
11321;BMP180;5715;48.234;14.320;2023-05-16T09:43:15;98031.00;;;24.40
11321;BMP180;5715;48.234;14.320;2023-05-16T09:46:04;98036.00;;;24.60
11321;BMP180;5715;48.234;14.320;2023-05-16T09:48:51;98042.00;;;24.40
11321;BMP180;5715;48.234;14.320;2023-05-16T09:51:40;98038.00;;;24.90
11321;BMP180;5715;48.234;14.320;2023-05-16T09:54:34;98035.00;;;24.90
11321;BMP180;5715;48.234;14.320;2023-05-16T09:57:22;98043.00;;;24.90
11321;BMP180;5715;48.234;14.320;2023-05-16T10:00:13;98045.00;;;24.90
11321;BMP180;5715;48.234;14.320;2023-05-16T10:03:02;98041.00;;;25.10
11321;BMP180;5715;48.234;14.320;2023-05-16T10:05:55;98037.00;;;25.20
11321;BMP180;5715;48.234;14.320;2023-05-16T10:08:44;98042.00;;;24.90
11321;BMP180;5715;48.234;14.320;2023-05-16T10:11:33;98050.00;;;24.50
11321;BMP180;5715;48.234;14.320;2023-05-16T10:14:22;98071.00;;;24.50
11321;BMP180;5715;48.234;14.320;2023-05-16T10:17:13;98084.00;;;24.50
11321;BMP180;5715;48.234;14.320;2023-05-16T10:20:06;98087.00;;;24.40
11321;BMP180;5715;48.234;14.320;2023-05-16T10:22:57;98097.00;;;24.40
11321;BMP180;5715;48.234;14.320;2023-05-16T10:25:48;98088.00;;;24.10
11321;BMP180;5715;48.234;14.320;2023-05-16T10:28:37;98096.00;;;24.00
11321;BMP180;5715;48.234;14.320;2023-05-16T10:31:25;98097.00;;;24.00
11321;BMP180;5715;48.234;14.320;2023-05-16T10:34:15;98084.00;;;23.90
11321;BMP180;5715;48.234;14.320;2023-05-16T10:37:05;98071.00;;;23.80
11321;BMP180;5715;48.234;14.320;2023-05-16T10:40:01;98079.00;;;23.70
11321;BMP180;5715;48.234;14.320;2023-05-16T10:43:02;98077.00;;;23.90
11321;BMP180;5715;48.234;14.320;2023-05-16T10:46:02;98088.00;;;23.90
11321;BMP180;5715;48.234;14.320;2023-05-16T10:48:50;98079.00;;;23.70
11321;BMP180;5715;48.234;14.320;2023-05-16T10:51:41;98067.00;;;23.90
11321;BMP180;5715;48.234;14.320;2023-05-16T10:54:40;98072.00;;;23.90
11321;BMP180;5715;48.234;14.320;2023-05-16T10:57:32;98075.00;;;23.80
11321;BMP180;5715;48.234;14.320;2023-05-16T11:00:24;98083.00;;;23.90
11321;BMP180;5715;48.234;14.320;2023-05-16T11:03:22;98082.00;;;23.90
11321;BMP180;5715;48.234;14.320;2023-05-16T11:06:11;98085.00;;;23.80
11321;BMP180;5715;48.234;14.320;2023-05-16T11:12:01;98073.00;;;23.70
11321;BMP180;5715;48.234;14.320;2023-05-16T11:14:52;98078.00;;;23.80
11321;BMP180;5715;48.234;14.320;2023-05-16T11:17:42;98091.00;;;23.70
11321;BMP180;5715;48.234;14.320;2023-05-16T11:20:35;98082.00;;;23.40
11321;BMP180;5715;48.234;14.320;2023-05-16T11:23:25;98068.00;;;23.40
11321;BMP180;5715;48.234;14.320;2023-05-16T11:26:12;98080.00;;;23.10
11321;BMP180;5715;48.234;14.320;2023-05-16T11:29:01;98087.00;;;23.00
11321;BMP180;5715;48.234;14.320;2023-05-16T11:31:51;98081.00;;;23.20
11321;BMP180;5715;48.234;14.320;2023-05-16T11:34:39;98080.00;;;23.30
11321;BMP180;5715;48.234;14.320;2023-05-16T11:37:28;98083.00;;;23.30
11321;BMP180;5715;48.234;14.320;2023-05-16T11:40:16;98088.00;;;23.30
11321;BMP180;5715;48.234;14.320;2023-05-16T11:43:04;98105.00;;;23.10
11321;BMP180;5715;48.234;14.320;2023-05-16T11:45:54;98111.00;;;23.10
11321;BMP180;5715;48.234;14.320;2023-05-16T11:48:42;98113.00;;;23.10
11321;BMP180;5715;48.234;14.320;2023-05-16T11:51:32;98116.00;;;22.90
11321;BMP180;5715;48.234;14.320;2023-05-16T11:54:21;98108.00;;;22.90
11321;BMP180;5715;48.234;14.320;2023-05-16T11:57:09;98101.00;;;23.00
11321;BMP180;5715;48.234;14.320;2023-05-16T12:00:03;98099.00;;;23.10
11321;BMP180;5715;48.234;14.320;2023-05-16T12:03:00;98101.00;;;23.00
11321;BMP180;5715;48.234;14.320;2023-05-16T12:05:54;98078.00;;;22.90
11321;BMP180;5715;48.234;14.320;2023-05-16T12:08:49;98074.00;;;22.90
11321;BMP180;5715;48.234;14.320;2023-05-16T12:11:43;98085.00;;;23.10
11321;BMP180;5715;48.234;14.320;2023-05-16T12:14:30;98092.00;;;23.30
11321;BMP180;5715;48.234;14.320;2023-05-16T12:17:18;98101.00;;;23.30
11321;BMP180;5715;48.234;14.320;2023-05-16T12:20:10;98105.00;;;23.10
11321;BMP180;5715;48.234;14.320;2023-05-16T12:23:00;98116.00;;;23.10
11321;BMP180;5715;48.234;14.320;2023-05-16T12:25:48;98113.00;;;23.20
11321;BMP180;5715;48.234;14.320;2023-05-16T12:28:36;98104.00;;;23.10
11321;BMP180;5715;48.234;14.320;2023-05-16T12:31:26;98094.00;;;23.10
11321;BMP180;5715;48.234;14.320;2023-05-16T12:34:19;98095.00;;;23.20
11321;BMP180;5715;48.234;14.320;2023-05-16T12:37:07;98092.00;;;23.30
11321;BMP180;5715;48.234;14.320;2023-05-16T12:40:01;98095.00;;;23.30
11321;BMP180;5715;48.234;14.320;2023-05-16T12:42:50;98103.00;;;23.40
11321;BMP180;5715;48.234;14.320;2023-05-16T12:45:39;98108.00;;;23.50
11321;BMP180;5715;48.234;14.320;2023-05-16T12:48:32;98096.00;;;23.60
11321;BMP180;5715;48.234;14.320;2023-05-16T12:51:21;98093.00;;;23.60
11321;BMP180;5715;48.234;14.320;2023-05-16T12:54:10;98084.00;;;23.60
11321;BMP180;5715;48.234;14.320;2023-05-16T12:56:58;98070.00;;;23.70
11321;BMP180;5715;48.234;14.320;2023-05-16T12:59:46;98067.00;;;23.80
11321;BMP180;5715;48.234;14.320;2023-05-16T13:02:33;98071.00;;;23.90
11321;BMP180;5715;48.234;14.320;2023-05-16T13:05:21;98072.00;;;24.20
11321;BMP180;5715;48.234;14.320;2023-05-16T13:08:09;98078.00;;;24.30
11321;BMP180;5715;48.234;14.320;2023-05-16T13:10:57;98083.00;;;24.10
11321;BMP180;5715;48.234;14.320;2023-05-16T13:13:44;98075.00;;;24.30
11321;BMP180;5715;48.234;14.320;2023-05-16T13:16:32;98074.00;;;24.20
11321;BMP180;5715;48.234;14.320;2023-05-16T13:19:20;98081.00;;;24.10
11321;BMP180;5715;48.234;14.320;2023-05-16T13:22:09;98079.00;;;23.90
11321;BMP180;5715;48.234;14.320;2023-05-16T13:24:57;98076.00;;;24.00
11321;BMP180;5715;48.234;14.320;2023-05-16T13:27:44;98072.00;;;24.10
11321;BMP180;5715;48.234;14.320;2023-05-16T13:30:32;98077.00;;;24.40
11321;BMP180;5715;48.234;14.320;2023-05-16T13:33:20;98075.00;;;24.70
11321;BMP180;5715;48.234;14.320;2023-05-16T13:36:08;98072.00;;;24.60
11321;BMP180;5715;48.234;14.320;2023-05-16T13:38:56;98075.00;;;24.50
11321;BMP180;5715;48.234;14.320;2023-05-16T13:41:44;98071.00;;;24.20
11321;BMP180;5715;48.234;14.320;2023-05-16T13:44:35;98077.00;;;24.10
11321;BMP180;5715;48.234;14.320;2023-05-16T13:47:22;98082.00;;;23.90
11321;BMP180;5715;48.234;14.320;2023-05-16T13:50:10;98064.00;;;23.80
11321;BMP180;5715;48.234;14.320;2023-05-16T13:52:58;98074.00;;;23.50
11321;BMP180;5715;48.234;14.320;2023-05-16T13:55:46;98074.00;;;23.80
11321;BMP180;5715;48.234;14.320;2023-05-16T13:58:33;98074.00;;;23.70
11321;BMP180;5715;48.234;14.320;2023-05-16T14:01:32;98062.00;;;23.70
11321;BMP180;5715;48.234;14.320;2023-05-16T14:04:20;98060.00;;;23.00
11321;BMP180;5715;48.234;14.320;2023-05-16T14:07:08;98055.00;;;22.90
11321;BMP180;5715;48.234;14.320;2023-05-16T14:09:56;98058.00;;;23.00
11321;BMP180;5715;48.234;14.320;2023-05-16T14:12:43;98058.00;;;22.80
11321;BMP180;5715;48.234;14.320;2023-05-16T14:15:31;98055.00;;;22.50
11321;BMP180;5715;48.234;14.320;2023-05-16T14:18:19;98061.00;;;22.40
11321;BMP180;5715;48.234;14.320;2023-05-16T14:21:07;98065.00;;;22.80
11321;BMP180;5715;48.234;14.320;2023-05-16T14:23:54;98068.00;;;23.00
11321;BMP180;5715;48.234;14.320;2023-05-16T14:26:42;98069.00;;;22.90
11321;BMP180;5715;48.234;14.320;2023-05-16T14:29:30;98079.00;;;22.70
11321;BMP180;5715;48.234;14.320;2023-05-16T14:32:17;98073.00;;;22.70
11321;BMP180;5715;48.234;14.320;2023-05-16T14:35:06;98075.00;;;22.40
11321;BMP180;5715;48.234;14.320;2023-05-16T14:37:54;98073.00;;;22.50
11321;BMP180;5715;48.234;14.320;2023-05-16T14:40:41;98075.00;;;22.10
11321;BMP180;5715;48.234;14.320;2023-05-16T14:43:29;98078.00;;;22.20
11321;BMP180;5715;48.234;14.320;2023-05-16T14:46:17;98079.00;;;22.30
11321;BMP180;5715;48.234;14.320;2023-05-16T14:49:05;98077.00;;;22.50
11321;BMP180;5715;48.234;14.320;2023-05-16T14:51:52;98081.00;;;22.40
11321;BMP180;5715;48.234;14.320;2023-05-16T14:54:40;98088.00;;;22.50
11321;BMP180;5715;48.234;14.320;2023-05-16T14:57:27;98082.00;;;22.10
11321;BMP180;5715;48.234;14.320;2023-05-16T15:00:16;98083.00;;;22.30
11321;BMP180;5715;48.234;14.320;2023-05-16T15:03:04;98063.00;;;22.20
11321;BMP180;5715;48.234;14.320;2023-05-16T15:05:51;98054.00;;;22.00
11321;BMP180;5715;48.234;14.320;2023-05-16T15:08:39;98054.00;;;21.80
11321;BMP180;5715;48.234;14.320;2023-05-16T15:11:28;98048.00;;;22.50
11321;BMP180;5715;48.234;14.320;2023-05-16T15:14:17;98046.00;;;22.30
11321;BMP180;5715;48.234;14.320;2023-05-16T15:17:05;98043.00;;;22.30
11321;BMP180;5715;48.234;14.320;2023-05-16T15:19:55;98050.00;;;22.30
11321;BMP180;5715;48.234;14.320;2023-05-16T15:22:44;98043.00;;;22.50
11321;BMP180;5715;48.234;14.320;2023-05-16T15:25:31;98057.00;;;22.90
11321;BMP180;5715;48.234;14.320;2023-05-16T15:28:19;98058.00;;;23.10
11321;BMP180;5715;48.234;14.320;2023-05-16T15:31:08;98061.00;;;23.10
11321;BMP180;5715;48.234;14.320;2023-05-16T15:33:56;98065.00;;;22.90
11321;BMP180;5715;48.234;14.320;2023-05-16T15:36:44;98064.00;;;22.90
11321;BMP180;5715;48.234;14.320;2023-05-16T15:39:32;98059.00;;;22.80
11321;BMP180;5715;48.234;14.320;2023-05-16T15:42:19;98061.00;;;22.70
11321;BMP180;5715;48.234;14.320;2023-05-16T15:45:09;98061.00;;;22.50
11321;BMP180;5715;48.234;14.320;2023-05-16T15:47:57;98068.00;;;22.40
11321;BMP180;5715;48.234;14.320;2023-05-16T15:50:45;98065.00;;;22.10
11321;BMP180;5715;48.234;14.320;2023-05-16T15:53:32;98063.00;;;22.10
11321;BMP180;5715;48.234;14.320;2023-05-16T15:56:20;98068.00;;;22.30
11321;BMP180;5715;48.234;14.320;2023-05-16T15:59:08;98067.00;;;22.10
11321;BMP180;5715;48.234;14.320;2023-05-16T16:01:55;98063.00;;;21.90
11321;BMP180;5715;48.234;14.320;2023-05-16T16:04:43;98071.00;;;21.80
11321;BMP180;5715;48.234;14.320;2023-05-16T16:07:30;98074.00;;;22.10
11321;BMP180;5715;48.234;14.320;2023-05-16T16:10:18;98080.00;;;22.20
11321;BMP180;5715;48.234;14.320;2023-05-16T16:13:08;98081.00;;;22.10
11321;BMP180;5715;48.234;14.320;2023-05-16T16:15:56;98085.00;;;22.00
11321;BMP180;5715;48.234;14.320;2023-05-16T16:18:44;98079.00;;;21.60
11321;BMP180;5715;48.234;14.320;2023-05-16T16:21:32;98075.00;;;21.90
11321;BMP180;5715;48.234;14.320;2023-05-16T16:24:19;98078.00;;;21.80